createdAt,value
2023-03-29T00:57:31.260Z,1.40
2023-03-29T00:59:59.385Z,1.30
2023-03-29T01:05:05.726Z,1.48
2023-03-29T01:07:36.564Z,1.40
2023-03-29T01:10:07.280Z,1.42
2023-03-29T01:12:38.673Z,1.67
2023-03-29T01:15:07.497Z,1.60
2023-03-29T01:17:34.934Z,1.27
2023-03-29T01:20:10.680Z,1.42
2023-03-29T01:22:42.636Z,1.20
2023-03-29T01:25:14.244Z,1.33
2023-03-29T01:27:47.203Z,1.85
2023-03-29T01:30:17.329Z,0.98
2023-03-29T01:32:47.991Z,1.10
2023-03-29T01:35:18.492Z,1.20
2023-03-29T01:37:49.401Z,1.15
2023-03-29T01:40:16.896Z,1.10
2023-03-29T01:42:49.367Z,1.27
2023-03-29T01:45:21.777Z,1.10
2023-03-29T01:47:55.488Z,1.25
2023-03-29T01:50:29.439Z,1.20
2023-03-29T01:52:58.213Z,1.13
2023-03-29T01:55:27.288Z,1.45
2023-03-29T01:57:56.956Z,1.17
2023-03-29T02:00:27.477Z,1.00
2023-03-29T02:03:00.193Z,1.02
2023-03-29T02:05:28.277Z,1.08
2023-03-29T02:07:56.296Z,1.30
2023-03-29T02:10:24.046Z,1.50
2023-03-29T02:12:52.023Z,1.42
2023-03-29T02:15:21.443Z,1.42
2023-03-29T02:17:50.927Z,1.17
2023-03-29T02:20:22.506Z,1.38
2023-03-29T02:22:52.754Z,1.05
2023-03-29T02:25:22.494Z,2.05
2023-03-29T02:27:50.155Z,1.27
2023-03-29T02:30:19.525Z,1.17
2023-03-29T02:32:50.633Z,1.17
2023-03-29T02:35:21.681Z,1.50
2023-03-29T02:37:51.989Z,1.60
2023-03-29T02:40:20.455Z,1.42
2023-03-29T02:42:48.826Z,1.50
2023-03-29T02:45:18.120Z,1.50
2023-03-29T02:47:46.805Z,1.67
2023-03-29T02:50:15.689Z,1.23
2023-03-29T02:52:48.623Z,1.40
2023-03-29T02:55:18.742Z,1.42
2023-03-29T02:57:46.185Z,1.48
2023-03-29T03:00:14.602Z,1.50
2023-03-29T03:02:42.835Z,1.48
2023-03-29T03:05:10.569Z,1.65
2023-03-29T03:07:40.625Z,1.65
2023-03-29T03:10:08.742Z,1.50
2023-03-29T03:12:37.287Z,1.70
2023-03-29T03:15:05.517Z,1.50
2023-03-29T03:17:33.301Z,1.45
2023-03-29T03:20:00.839Z,1.80
2023-03-29T03:22:28.222Z,1.65
2023-03-29T03:24:56.973Z,2.13
2023-03-29T03:27:24.345Z,2.40
2023-03-29T03:29:51.695Z,2.13
2023-03-29T03:32:19.098Z,1.27
2023-03-29T03:34:46.506Z,1.88
2023-03-29T03:37:13.883Z,1.80
2023-03-29T03:39:41.609Z,2.30
2023-03-29T03:42:10.373Z,2.08
2023-03-29T03:44:38.016Z,2.08
2023-03-29T03:47:05.675Z,2.00
2023-03-29T03:49:33.297Z,2.17
2023-03-29T03:52:00.912Z,1.70
2023-03-29T03:54:28.290Z,1.88
2023-03-29T03:56:55.721Z,1.40
2023-03-29T03:59:24.740Z,1.77
2023-03-29T04:01:52.758Z,2.30
2023-03-29T04:04:20.614Z,2.38
2023-03-29T04:06:48.054Z,2.10
2023-03-29T04:09:15.461Z,1.85
2023-03-29T04:11:43.032Z,1.98
2023-03-29T04:14:11.214Z,2.45
2023-03-29T04:16:39.886Z,1.65
2023-03-29T04:19:07.259Z,2.38
2023-03-29T04:21:34.643Z,1.63
2023-03-29T04:24:02.064Z,1.80
2023-03-29T04:26:29.517Z,2.17
2023-03-29T04:28:57.111Z,1.58
2023-03-29T04:31:24.519Z,2.50
2023-03-29T04:33:53.296Z,2.33
2023-03-29T04:36:20.758Z,2.30
2023-03-29T04:38:48.846Z,2.75
2023-03-29T04:41:16.329Z,1.85
2023-03-29T04:43:46.796Z,2.13
2023-03-29T04:46:14.368Z,2.65
2023-03-29T04:48:41.890Z,1.98
2023-03-29T04:51:11.577Z,2.45
2023-03-29T04:53:39.042Z,2.70
2023-03-29T04:56:08.006Z,2.15
2023-03-29T04:58:35.420Z,2.50
2023-03-29T05:01:03.881Z,2.70
2023-03-29T05:03:31.347Z,2.72
2023-03-29T05:06:06.686Z,3.10
2023-03-29T05:08:38.351Z,3.55
2023-03-29T05:11:06.686Z,3.50
2023-03-29T05:13:34.418Z,3.13
2023-03-29T05:16:01.909Z,2.88
2023-03-29T05:18:29.905Z,2.72
2023-03-29T05:20:57.895Z,2.22
2023-03-29T05:23:25.730Z,2.97
2023-03-29T05:25:54.515Z,2.67
2023-03-29T05:28:22.477Z,3.25
2023-03-29T05:30:59.964Z,3.17
2023-03-29T05:33:27.578Z,3.08
2023-03-29T05:36:00.079Z,2.30
2023-03-29T05:38:27.479Z,9.75
2023-03-29T05:40:56.254Z,8.15
2023-03-29T05:43:23.656Z,8.45
2023-03-29T05:45:53.187Z,9.43
2023-03-29T05:48:20.783Z,17.88
2023-03-29T05:50:49.439Z,4.05
2023-03-29T05:53:17.008Z,3.47
2023-03-29T05:55:44.843Z,3.92
2023-03-29T05:58:14.034Z,3.90
2023-03-29T06:00:41.839Z,4.45
2023-03-29T06:03:17.961Z,3.45
2023-03-29T06:05:49.761Z,3.70
2023-03-29T06:08:17.611Z,3.05
2023-03-29T06:10:45.538Z,3.63
2023-03-29T06:13:14.236Z,3.97
2023-03-29T06:15:41.652Z,4.20
2023-03-29T06:18:09.751Z,3.80
2023-03-29T06:20:37.199Z,3.05
2023-03-29T06:23:04.756Z,3.90
2023-03-29T06:25:32.092Z,3.67
2023-03-29T06:27:59.534Z,2.30
2023-03-29T06:30:28.745Z,3.25
2023-03-29T06:32:57.803Z,2.92
2023-03-29T06:35:25.264Z,4.35
2023-03-29T06:37:53.685Z,4.25
2023-03-29T06:40:21.508Z,2.78
2023-03-29T06:42:49.094Z,3.25
2023-03-29T06:45:16.902Z,4.07
2023-03-29T06:47:45.750Z,3.85
2023-03-29T06:50:14.574Z,3.33
2023-03-29T06:52:42.770Z,3.42
2023-03-29T06:55:11.866Z,3.70
2023-03-29T06:57:39.992Z,2.80
2023-03-29T07:00:14.889Z,3.00
2023-03-29T07:02:42.331Z,3.33
2023-03-29T07:05:12.095Z,3.10
2023-03-29T07:07:53.675Z,3.35
2023-03-29T07:10:22.007Z,2.80
2023-03-29T07:12:49.685Z,3.78
2023-03-29T07:15:17.153Z,2.78
2023-03-29T07:17:44.654Z,3.10
2023-03-29T07:20:14.501Z,3.88
2023-03-29T07:25:10.424Z,3.30
2023-03-29T07:27:38.138Z,3.03
2023-03-29T07:30:09.822Z,3.05
2023-03-29T07:32:37.577Z,3.30
2023-03-29T07:35:05.842Z,2.35
2023-03-29T07:37:35.248Z,2.63
2023-03-29T07:40:08.905Z,2.92
2023-03-29T07:42:37.503Z,3.10
2023-03-29T07:45:05.010Z,2.83
2023-03-29T07:47:33.025Z,2.90
2023-03-29T07:50:00.388Z,2.78
2023-03-29T07:52:29.919Z,3.58
2023-03-29T07:54:58.600Z,2.85
2023-03-29T07:57:26.570Z,3.00
2023-03-29T07:59:54.408Z,3.05
2023-03-29T08:02:22.302Z,2.97
2023-03-29T08:04:49.722Z,3.00
2023-03-29T08:07:19.219Z,2.50
2023-03-29T08:09:46.769Z,2.40
2023-03-29T08:12:15.740Z,2.75
2023-03-29T08:14:43.078Z,3.10
2023-03-29T08:17:10.854Z,2.95
2023-03-29T08:19:38.320Z,3.95
2023-03-29T08:22:05.646Z,2.85
2023-03-29T08:24:33.009Z,2.97
2023-03-29T08:27:00.484Z,3.13
2023-03-29T08:29:29.312Z,2.78
2023-03-29T08:31:57.341Z,2.38
2023-03-29T08:34:24.852Z,2.95
2023-03-29T08:36:52.996Z,3.30
2023-03-29T08:39:20.402Z,2.55
2023-03-29T08:41:54.134Z,1.90
2023-03-29T08:44:30.000Z,2.38
2023-03-29T08:47:02.754Z,2.60
2023-03-29T08:49:30.776Z,1.92
2023-03-29T08:51:59.631Z,2.47
2023-03-29T08:54:29.075Z,2.20
2023-03-29T08:57:01.266Z,2.47
2023-03-29T08:59:30.108Z,2.63
2023-03-29T09:01:58.752Z,2.38
2023-03-29T09:04:28.078Z,3.17
2023-03-29T09:06:55.628Z,3.10
2023-03-29T09:09:24.169Z,2.70
2023-03-29T09:12:00.153Z,2.65
2023-03-29T09:14:34.957Z,3.33
2023-03-29T09:17:07.427Z,2.55
2023-03-29T09:19:40.092Z,10.98
2023-03-29T09:22:10.490Z,2.47
2023-03-29T09:24:55.038Z,2.70
2023-03-29T09:27:24.909Z,2.58
2023-03-29T09:29:57.261Z,2.75
2023-03-29T09:32:29.235Z,2.97
2023-03-29T09:35:02.083Z,2.75
2023-03-29T09:37:32.948Z,2.30
2023-03-29T09:40:02.025Z,2.40
2023-03-29T09:42:31.256Z,2.50
2023-03-29T09:45:05.905Z,2.63
2023-03-29T09:47:36.076Z,2.67
2023-03-29T09:50:08.462Z,2.92
2023-03-29T09:52:39.508Z,2.70
2023-03-29T09:55:07.802Z,2.90
2023-03-29T09:57:35.603Z,3.00
2023-03-29T10:00:05.686Z,2.17
2023-03-29T10:02:33.230Z,2.47
2023-03-29T10:05:04.542Z,3.78
2023-03-29T10:07:39.863Z,2.50
2023-03-29T10:10:08.567Z,2.10
2023-03-29T10:12:36.169Z,3.67
2023-03-29T10:15:05.606Z,2.45
2023-03-29T10:20:04.374Z,2.38
2023-03-29T10:22:40.315Z,2.38
2023-03-29T10:25:18.528Z,2.20
2023-03-29T10:27:47.219Z,2.30
2023-03-29T10:30:21.383Z,1.97
2023-03-29T10:32:53.368Z,2.08
2023-03-29T10:35:23.836Z,2.40
2023-03-29T10:37:56.275Z,2.47
2023-03-29T10:40:27.421Z,3.05
2023-03-29T10:42:58.787Z,2.17
2023-03-29T10:45:27.976Z,2.10
2023-03-29T10:47:55.907Z,1.92
2023-03-29T10:50:23.745Z,1.85
2023-03-29T10:52:51.397Z,1.83
2023-03-29T10:55:19.721Z,1.70
2023-03-29T10:57:52.749Z,2.15
2023-03-29T11:00:24.388Z,1.98
2023-03-29T11:03:08.612Z,1.80
2023-03-29T11:05:40.531Z,1.98
2023-03-29T11:08:14.878Z,1.80
2023-03-29T11:10:46.823Z,1.48
2023-03-29T11:13:22.127Z,1.55
2023-03-29T11:15:54.386Z,1.50
2023-03-29T11:18:30.285Z,5.10
2023-03-29T11:21:08.450Z,2.30
2023-03-29T11:23:44.760Z,1.35
2023-03-29T11:26:15.864Z,1.63
2023-03-29T11:28:49.317Z,2.13
2023-03-29T11:31:20.584Z,1.80
2023-03-29T11:33:52.899Z,2.08
2023-03-29T11:36:25.067Z,1.60
2023-03-29T11:38:58.570Z,1.88
2023-03-29T11:41:27.788Z,2.10
2023-03-29T11:43:59.231Z,4.43
2023-03-29T11:46:29.372Z,3.00
2023-03-29T11:49:00.399Z,2.58
2023-03-29T11:51:29.574Z,1.60
2023-03-29T11:54:00.468Z,1.35
2023-03-29T11:56:34.140Z,1.30
2023-03-29T11:59:42.277Z,1.20
2023-03-29T12:02:34.375Z,1.20
2023-03-29T12:05:04.335Z,1.20
2023-03-29T12:07:33.648Z,1.75
2023-03-29T12:10:02.711Z,1.40
2023-03-29T12:12:34.015Z,1.58
2023-03-29T12:15:06.925Z,1.60
2023-03-29T12:17:37.388Z,1.45
2023-03-29T12:20:08.152Z,1.20
2023-03-29T12:22:35.692Z,0.95
2023-03-29T12:25:04.942Z,1.17
2023-03-29T12:27:34.314Z,1.17
2023-03-29T12:30:23.403Z,1.23
2023-03-29T12:32:58.643Z,1.27
2023-03-29T12:35:31.942Z,1.20
2023-03-29T12:38:07.176Z,1.05
2023-03-29T12:40:37.464Z,1.42
2023-03-29T12:43:07.509Z,1.20
2023-03-29T12:45:39.005Z,1.10
2023-03-29T12:48:07.551Z,1.42
2023-03-29T12:50:36.587Z,1.52
2023-03-29T12:53:05.345Z,1.00
2023-03-29T12:55:34.549Z,1.30
2023-03-29T12:58:02.928Z,1.20
2023-03-29T13:00:33.472Z,2.15
2023-03-29T13:03:03.847Z,1.38
2023-03-29T13:05:33.621Z,1.20
2023-03-29T13:08:11.539Z,0.85
2023-03-29T13:10:40.767Z,1.08
2023-03-29T13:13:11.060Z,1.10
2023-03-29T13:15:38.603Z,1.02
2023-03-29T13:18:12.625Z,1.10
2023-03-29T13:20:46.368Z,1.60
2023-03-29T13:23:28.045Z,1.27
2023-03-29T13:26:02.230Z,0.90
2023-03-29T13:28:33.843Z,1.17
2023-03-29T13:31:03.529Z,1.20
2023-03-29T13:33:40.302Z,1.60
2023-03-29T13:36:11.217Z,1.10
2023-03-29T13:38:45.347Z,1.10
2023-03-29T13:41:25.421Z,1.30
2023-03-29T13:43:53.585Z,1.00
2023-03-29T13:46:23.335Z,1.20
2023-03-29T13:48:54.867Z,1.40
2023-03-29T13:51:27.505Z,0.95
2023-03-29T13:53:56.344Z,0.90
2023-03-29T13:56:24.694Z,1.00
2023-03-29T13:58:52.436Z,0.95
2023-03-29T14:01:25.974Z,0.70
2023-03-29T14:03:56.669Z,2.00
2023-03-29T14:06:26.616Z,1.00
2023-03-29T14:08:54.386Z,1.35
2023-03-29T14:11:23.238Z,1.02
2023-03-29T14:13:53.950Z,1.20
2023-03-29T14:16:21.726Z,1.10
2023-03-29T14:18:51.433Z,0.90
2023-03-29T14:21:21.017Z,1.20
2023-03-29T14:26:17.389Z,1.00
2023-03-29T14:28:45.974Z,1.27
2023-03-29T14:31:18.209Z,1.15
2023-03-29T14:33:47.308Z,1.20
2023-03-29T14:36:17.517Z,1.30
2023-03-29T14:38:49.360Z,1.30
2023-03-29T14:41:17.478Z,1.40
2023-03-29T14:43:45.388Z,1.33
2023-03-29T14:46:19.209Z,1.30
2023-03-29T14:48:46.973Z,1.30
2023-03-29T14:51:16.608Z,1.45
2023-03-29T14:56:15.723Z,1.60
2023-03-29T14:58:46.532Z,1.60
2023-03-29T15:01:16.646Z,1.50
2023-03-29T15:03:44.951Z,1.83
2023-03-29T15:06:13.262Z,1.98
2023-03-29T15:08:48.177Z,1.70
2023-03-29T15:11:27.610Z,2.10
2023-03-29T15:14:01.533Z,2.40
2023-03-29T15:16:32.378Z,3.97
2023-03-29T15:19:01.797Z,3.53
2023-03-29T15:21:31.591Z,3.33
2023-03-29T15:23:59.928Z,3.92
2023-03-29T15:26:33.785Z,4.15
2023-03-29T15:29:08.144Z,2.35
2023-03-29T15:31:36.811Z,2.38
2023-03-29T15:34:06.969Z,2.35
2023-03-29T15:36:40.505Z,4.53
2023-03-29T15:39:07.987Z,2.78
2023-03-29T15:41:36.776Z,2.92
2023-03-29T15:44:04.220Z,3.20
2023-03-29T15:46:32.825Z,2.40
2023-03-29T15:49:00.305Z,2.67
2023-03-29T15:51:27.752Z,2.53
2023-03-29T15:53:55.192Z,2.22
2023-03-29T15:56:23.323Z,2.28
2023-03-29T15:58:52.045Z,2.30
2023-03-29T16:01:34.347Z,2.83
2023-03-29T16:04:02.149Z,2.58
2023-03-29T16:06:29.602Z,2.38
2023-03-29T16:08:57.481Z,2.20
2023-03-29T16:11:24.992Z,2.42
2023-03-29T16:13:53.725Z,2.80
2023-03-29T16:16:21.133Z,2.58
2023-03-29T16:18:48.620Z,3.35
2023-03-29T16:21:18.018Z,3.08
2023-03-29T16:23:45.802Z,2.50
2023-03-29T16:26:13.824Z,2.38
2023-03-29T16:28:41.707Z,2.22
2023-03-29T16:31:11.532Z,2.40
2023-03-29T16:33:41.993Z,2.47
2023-03-29T16:36:10.098Z,2.30
2023-03-29T16:38:37.643Z,2.38
2023-03-29T16:41:06.766Z,2.30
2023-03-29T16:43:38.693Z,2.25
2023-03-29T16:46:07.959Z,2.35
2023-03-29T16:48:36.791Z,2.40
2023-03-29T16:51:07.915Z,2.13
2023-03-29T16:53:35.618Z,2.47
2023-03-29T16:56:03.096Z,2.45
2023-03-29T16:58:30.868Z,2.50
2023-03-29T17:00:58.407Z,2.63
2023-03-29T17:03:26.134Z,2.40
2023-03-29T17:05:54.894Z,2.45
2023-03-29T17:08:22.702Z,2.55
2023-03-29T17:10:52.692Z,2.70
2023-03-29T17:13:22.165Z,2.30
2023-03-29T17:15:52.140Z,2.78
2023-03-29T17:18:19.751Z,2.70
2023-03-29T17:20:47.112Z,2.35
2023-03-29T17:23:15.812Z,2.10
2023-03-29T17:25:44.888Z,2.13
2023-03-29T17:28:15.022Z,2.78
2023-03-29T17:30:42.457Z,3.30
2023-03-29T17:33:11.211Z,2.08
2023-03-29T17:35:38.648Z,2.70
2023-03-29T17:38:06.115Z,2.10
2023-03-29T17:40:34.860Z,2.20
2023-03-29T17:43:02.234Z,2.20
2023-03-29T17:45:29.605Z,2.30
2023-03-29T17:47:56.988Z,2.55
2023-03-29T17:50:24.465Z,2.20
2023-03-29T17:52:51.912Z,1.90
2023-03-29T17:55:21.091Z,2.00
2023-03-29T17:57:50.049Z,2.10
2023-03-29T18:00:17.811Z,2.13
2023-03-29T18:02:46.300Z,2.20
2023-03-29T18:05:13.872Z,2.08
2023-03-29T18:07:41.243Z,2.33
2023-03-29T18:10:09.131Z,2.08
2023-03-29T18:12:36.653Z,2.00
2023-03-29T18:15:06.287Z,2.42
2023-03-29T18:17:35.574Z,2.40
2023-03-29T18:20:05.655Z,2.10
2023-03-29T18:22:34.146Z,2.25
2023-03-29T18:25:01.608Z,2.00
2023-03-29T18:27:29.069Z,2.03
2023-03-29T18:29:58.595Z,2.55
2023-03-29T18:32:29.628Z,2.00
2023-03-29T18:34:57.053Z,2.08
2023-03-29T18:37:24.542Z,2.30
2023-03-29T18:39:51.951Z,2.00
2023-03-29T18:42:21.772Z,2.00
2023-03-29T18:44:49.255Z,1.80
2023-03-29T18:47:18.237Z,1.80
2023-03-29T18:49:47.254Z,2.28
2023-03-29T18:52:14.639Z,1.77
2023-03-29T18:54:42.452Z,1.77
2023-03-29T18:57:09.853Z,1.88
2023-03-29T18:59:37.217Z,2.58
2023-03-29T19:02:05.030Z,2.05
2023-03-29T19:04:33.612Z,2.00
2023-03-29T19:07:04.631Z,2.05
2023-03-29T19:09:32.424Z,1.90
2023-03-29T19:11:59.894Z,1.95
2023-03-29T19:14:27.267Z,1.95
2023-03-29T19:16:54.653Z,1.90
2023-03-29T19:19:23.258Z,2.25
2023-03-29T19:21:57.703Z,2.08
2023-03-29T19:24:28.794Z,1.85
2023-03-29T19:26:56.595Z,1.87
2023-03-29T19:29:26.216Z,1.65
2023-03-29T19:31:54.742Z,1.75
2023-03-29T19:34:23.868Z,1.42
2023-03-29T19:36:51.808Z,1.90
2023-03-29T19:39:21.308Z,1.73
2023-03-29T19:41:50.241Z,2.00
2023-03-29T19:44:20.397Z,1.97
2023-03-29T19:46:47.795Z,2.00
2023-03-29T19:49:15.528Z,1.83
2023-03-29T19:51:43.182Z,2.00
2023-03-29T19:54:12.118Z,1.80
2023-03-29T19:56:39.735Z,2.30
2023-03-29T19:59:10.953Z,1.88
2023-03-29T20:01:42.665Z,2.10
2023-03-29T20:04:10.287Z,1.85
2023-03-29T20:06:37.857Z,2.00
2023-03-29T20:09:05.431Z,2.08
2023-03-29T20:11:32.858Z,2.03
2023-03-29T20:14:00.336Z,2.05
2023-03-29T20:16:34.347Z,2.40
2023-03-29T20:19:02.511Z,2.20
2023-03-29T20:21:30.246Z,2.17
2023-03-29T20:23:57.663Z,2.40
2023-03-29T20:26:25.096Z,2.00
2023-03-29T20:28:52.701Z,2.50
2023-03-29T20:31:20.172Z,2.10
2023-03-29T20:33:51.946Z,2.50
2023-03-29T20:36:23.197Z,2.30
2023-03-29T20:38:51.353Z,2.60
2023-03-29T20:41:19.467Z,2.50
2023-03-29T20:43:46.906Z,2.08
2023-03-29T20:46:18.357Z,2.08
2023-03-29T20:48:53.416Z,2.28
2023-03-29T20:51:22.634Z,2.08
2023-03-29T20:53:50.714Z,1.90
2023-03-29T20:56:18.999Z,2.20
2023-03-29T20:58:48.398Z,2.45
2023-03-29T21:01:15.784Z,2.08
2023-03-29T21:03:43.266Z,2.13
2023-03-29T21:06:14.423Z,2.10
2023-03-29T21:08:43.383Z,2.05
2023-03-29T21:11:17.097Z,1.93
2023-03-29T21:13:45.034Z,2.80
2023-03-29T21:16:12.980Z,1.92
2023-03-29T21:18:41.668Z,1.60
2023-03-29T21:21:09.381Z,2.80
2023-03-29T21:23:37.142Z,2.25
2023-03-29T21:26:06.746Z,2.35
2023-03-29T21:28:34.514Z,2.00
2023-03-29T21:31:04.731Z,2.50
2023-03-29T21:33:32.503Z,2.45
2023-03-29T21:36:01.628Z,2.47
2023-03-29T21:38:29.176Z,2.97
2023-03-29T21:40:58.013Z,2.08
2023-03-29T21:43:26.826Z,2.03
2023-03-29T21:45:54.221Z,2.22
2023-03-29T21:48:21.637Z,2.35
2023-03-29T21:50:49.581Z,2.30
2023-03-29T21:53:17.225Z,2.40
2023-03-29T21:55:44.676Z,2.28
2023-03-29T21:58:12.065Z,2.63
2023-03-29T22:00:41.563Z,2.38
2023-03-29T22:03:09.062Z,2.60
2023-03-29T22:05:36.660Z,2.47
2023-03-29T22:08:04.986Z,3.00
2023-03-29T22:10:32.968Z,2.92
2023-03-29T22:13:00.712Z,2.78
2023-03-29T22:15:29.317Z,2.65
2023-03-29T22:17:59.860Z,2.53
2023-03-29T22:20:27.600Z,2.88
2023-03-29T22:22:55.609Z,3.00
2023-03-29T22:25:24.365Z,2.78
2023-03-29T22:27:51.714Z,2.65
2023-03-29T22:30:19.237Z,2.50
2023-03-29T22:32:46.654Z,3.20
2023-03-29T22:35:15.427Z,2.50
2023-03-29T22:37:43.348Z,2.25
2023-03-29T22:40:11.538Z,2.40
2023-03-29T22:42:38.919Z,2.72
2023-03-29T22:45:07.498Z,2.78
2023-03-29T22:47:35.359Z,2.85
2023-03-29T22:50:02.770Z,2.50
2023-03-29T22:52:31.469Z,2.50
2023-03-29T22:54:58.984Z,2.22
2023-03-29T22:57:26.449Z,2.53
2023-03-29T22:59:53.961Z,2.33
2023-03-29T23:02:21.750Z,2.63
2023-03-29T23:04:49.226Z,2.40
2023-03-29T23:07:16.611Z,2.25
2023-03-29T23:09:45.306Z,2.28
2023-03-29T23:12:12.696Z,2.60
2023-03-29T23:14:42.857Z,2.90
2023-03-29T23:17:10.740Z,2.70
2023-03-29T23:19:38.257Z,2.53
2023-03-29T23:22:05.723Z,2.63
2023-03-29T23:24:33.428Z,2.42
2023-03-29T23:27:04.821Z,2.83
2023-03-29T23:29:32.164Z,3.33
2023-03-29T23:31:59.551Z,2.70
2023-03-29T23:34:26.901Z,2.65
2023-03-29T23:36:54.262Z,2.60
2023-03-29T23:39:21.634Z,2.40
2023-03-29T23:41:49.138Z,2.58
2023-03-29T23:44:17.842Z,2.50
2023-03-29T23:46:45.298Z,2.50
2023-03-29T23:49:12.774Z,2.50
2023-03-29T23:51:42.662Z,2.30
2023-03-29T23:54:10.045Z,2.72
2023-03-29T23:56:37.521Z,2.45
2023-03-29T23:59:05.352Z,2.70
